Time;durP1;ratioP1;P1;durP2;ratioP2;P2;SDS_P1;SDS_P2;PMS_P1;PMS_P2;Temp;Humidity;BMP_temperature;BMP_pressure;BME280_temperature;BME280_humidity;BME280_pressure;Samples;Min_cycle;Max_cycle;Signal;HPM_P1;HPM_P2
2021/05/15 00:03:30;;;;;;;1.60;1.00;;;10.80;99.90;;;;;;6688984;88;20282;-77
2021/05/15 00:13:31;;;;;;;2.58;1.17;;;10.60;99.90;;;;;;6689027;88;20175;-76
2021/05/15 00:23:32;;;;;;;2.33;1.10;;;10.70;99.90;;;;;;6689630;88;20216;-76
2021/05/15 00:33:33;;;;;;;3.03;1.00;;;10.50;99.90;;;;;;6687061;88;20322;-77
2021/05/15 00:43:33;;;;;;;1.80;0.90;;;10.50;99.90;;;;;;6687742;88;20210;-76
2021/05/15 00:53:34;;;;;;;1.92;0.80;;;10.60;99.90;;;;;;6688589;88;20187;-76
2021/05/15 01:03:34;;;;;;;1.75;0.80;;;10.80;99.90;;;;;;6688853;88;20235;-76
2021/05/15 01:13:35;;;;;;;1.95;0.82;;;10.70;99.90;;;;;;6689631;88;20231;-76
2021/05/15 01:23:36;;;;;;;2.40;0.80;;;10.70;99.90;;;;;;6688711;88;20237;-76
2021/05/15 01:33:37;;;;;;;1.83;0.93;;;10.50;99.90;;;;;;6688657;88;20196;-76
2021/05/15 01:43:38;;;;;;;2.90;1.40;;;10.40;99.90;;;;;;6685237;88;20526;-76
2021/05/15 01:53:48;;;;;;;2.50;1.10;;;10.20;99.90;;;;;;6687687;88;20254;-76
2021/05/15 02:03:49;;;;;;;2.30;1.10;;;10.10;99.90;;;;;;6687821;88;20237;-76
2021/05/15 02:13:50;;;;;;;1.92;1.23;;;10.00;99.90;;;;;;6688003;88;20719;-77
2021/05/15 02:23:51;;;;;;;2.50;1.20;;;9.70;99.90;;;;;;6688077;88;20210;-76
2021/05/15 02:33:51;;;;;;;3.87;1.48;;;9.50;99.90;;;;;;6687429;88;20326;-76
2021/05/15 02:43:52;;;;;;;3.10;1.50;;;9.40;99.90;;;;;;6688062;88;20256;-76
2021/05/15 02:53:53;;;;;;;3.85;1.60;;;9.40;99.90;;;;;;6687018;88;20226;-76
2021/05/15 03:03:54;;;;;;;2.08;1.40;;;9.40;99.90;;;;;;6682270;88;20216;-77
2021/05/15 03:13:54;;;;;;;3.40;1.33;;;9.50;99.90;;;;;;6688934;88;20199;-77
2021/05/15 03:23:55;;;;;;;3.92;1.58;;;9.50;99.90;;;;;;6687162;88;20202;-76
2021/05/15 03:33:55;;;;;;;5.03;1.48;;;9.60;99.90;;;;;;6689760;88;20788;-76
2021/05/15 03:43:56;;;;;;;3.93;1.30;;;9.60;99.90;;;;;;6689843;88;20221;-76
2021/05/15 03:53:57;;;;;;;2.62;1.50;;;9.60;99.90;;;;;;6690019;88;20541;-77
2021/05/15 04:03:57;;;;;;;2.83;1.40;;;9.80;99.90;;;;;;6689230;88;20247;-76
2021/05/15 04:14:01;;;;;;;2.30;1.50;;;9.90;99.90;;;;;;6688197;88;20189;-76
2021/05/15 04:24:01;;;;;;;2.62;1.45;;;9.90;99.90;;;;;;6688624;88;20210;-77
2021/05/15 04:34:02;;;;;;;2.60;1.80;;;9.90;99.90;;;;;;6689022;88;22529;-77
2021/05/15 04:44:03;;;;;;;3.80;1.95;;;9.80;99.90;;;;;;6689434;88;20183;-77
2021/05/15 04:54:04;;;;;;;2.58;1.77;;;9.80;99.90;;;;;;6690834;88;20213;-77
2021/05/15 05:04:08;;;;;;;3.10;2.05;;;9.80;99.90;;;;;;6693713;88;20215;-76
2021/05/15 05:14:08;;;;;;;3.65;2.00;;;9.70;99.90;;;;;;6691898;88;20257;-77
2021/05/15 05:24:09;;;;;;;3.33;2.15;;;9.90;99.90;;;;;;6692861;88;20695;-77
2021/05/15 05:34:10;;;;;;;3.55;2.15;;;10.20;99.90;;;;;;6691670;88;20695;-77
2021/05/15 05:44:10;;;;;;;3.33;2.25;;;10.20;99.90;;;;;;6691239;88;20715;-77
2021/05/15 05:54:11;;;;;;;3.00;1.90;;;10.30;99.90;;;;;;6690848;88;20188;-77
2021/05/15 06:04:11;;;;;;;2.97;1.87;;;10.40;99.90;;;;;;6690697;88;20504;-77
2021/05/15 06:14:12;;;;;;;5.35;2.05;;;10.60;99.90;;;;;;6691764;88;20750;-78
2021/05/15 06:24:13;;;;;;;2.62;1.87;;;11.00;99.90;;;;;;6691327;88;20213;-77
2021/05/15 06:34:14;;;;;;;2.40;1.90;;;11.10;99.90;;;;;;6689595;88;20182;-77
2021/05/15 06:44:14;;;;;;;5.47;2.03;;;11.10;99.90;;;;;;6688154;88;20215;-76
2021/05/15 06:54:15;;;;;;;3.37;1.95;;;11.20;99.90;;;;;;6684840;88;20769;-76
2021/05/15 07:04:15;;;;;;;3.87;2.00;;;11.60;99.90;;;;;;6684584;88;20212;-77
2021/05/15 07:14:17;;;;;;;4.20;2.10;;;11.90;99.90;;;;;;6682673;88;20275;-76
2021/05/15 07:24:17;;;;;;;5.10;1.83;;;12.10;99.90;;;;;;6677842;88;20215;-75
2021/05/15 07:34:18;;;;;;;4.55;2.30;;;13.00;99.90;;;;;;6675222;88;20704;-75
2021/05/15 07:44:20;;;;;;;4.55;2.53;;;13.60;99.90;;;;;;6684827;88;20272;-77
2021/05/15 07:54:22;;;;;;;5.25;2.30;;;14.10;99.90;;;;;;6682392;88;20222;-76
2021/05/15 08:04:22;;;;;;;3.95;2.78;;;13.60;99.90;;;;;;6686725;88;20196;-78
2021/05/15 08:14:23;;;;;;;3.92;2.42;;;14.40;99.90;;;;;;6685704;88;20776;-76
2021/05/15 08:24:23;;;;;;;6.55;3.08;;;14.80;99.90;;;;;;6684778;88;21076;-76
2021/05/15 08:34:24;;;;;;;5.68;3.10;;;14.40;99.90;;;;;;6686292;88;20240;-76
2021/05/15 08:44:27;;;;;;;5.65;2.78;;;14.00;99.90;;;;;;6688488;88;20996;-73
2021/05/15 08:54:28;;;;;;;6.72;3.20;;;14.50;99.90;;;;;;6688088;88;20692;-76
2021/05/15 09:04:29;;;;;;;6.70;3.25;;;14.10;99.90;;;;;;6688814;88;20318;-76
2021/05/15 09:14:29;;;;;;;5.30;3.10;;;14.00;99.90;;;;;;6684989;88;20669;-74
2021/05/15 09:24:40;;;;;;;5.45;2.85;;;14.70;99.90;;;;;;6689062;88;20207;-75
2021/05/15 09:34:49;;;;;;;6.07;3.10;;;14.90;99.90;;;;;;6684649;88;20333;-76
2021/05/15 09:44:50;;;;;;;5.37;2.62;;;14.80;99.90;;;;;;6685175;88;20863;-75
2021/05/15 09:54:50;;;;;;;5.20;2.23;;;14.80;99.90;;;;;;6679504;88;20748;-75
2021/05/15 10:04:51;;;;;;;4.78;2.47;;;12.60;99.90;;;;;;6683153;88;21049;-75
2021/05/15 10:14:52;;;;;;;4.18;2.08;;;11.50;99.90;;;;;;6685104;88;20203;-75
2021/05/15 10:24:54;;;;;;;3.67;1.40;;;11.50;99.90;;;;;;6684259;88;20197;-76
2021/05/15 10:35:00;;;;;;;3.42;1.12;;;11.10;99.90;;;;;;6683219;88;20207;-74
2021/05/15 10:45:01;;;;;;;2.40;1.10;;;10.70;99.90;;;;;;6685201;88;20800;-74
2021/05/15 10:55:03;;;;;;;3.08;0.98;;;10.70;99.90;;;;;;6684967;88;20204;-75
2021/05/15 11:05:10;;;;;;;2.37;0.93;;;10.80;99.90;;;;;;6686273;88;20187;-74
2021/05/15 11:15:16;;;;;;;4.25;1.02;;;11.10;99.90;;;;;;6686326;88;20225;-75
2021/05/15 11:25:28;;;;;;;1.60;0.70;;;12.10;99.90;;;;;;6684944;88;20267;-75
2021/05/15 11:35:30;;;;;;;4.00;1.48;;;12.60;99.90;;;;;;6687497;88;20211;-76
2021/05/15 11:45:32;;;;;;;4.68;1.30;;;13.40;99.90;;;;;;6688209;88;20229;-74
2021/05/15 11:55:33;;;;;;;2.42;1.30;;;13.50;99.90;;;;;;6685161;88;20265;-74
2021/05/15 12:05:34;;;;;;;2.42;1.02;;;13.50;99.90;;;;;;6684694;88;20608;-73
2021/05/15 12:15:38;;;;;;;4.07;1.17;;;13.20;99.90;;;;;;6685723;88;20704;-74
2021/05/15 12:25:41;;;;;;;2.87;1.30;;;13.00;99.90;;;;;;6686786;88;20199;-73
2021/05/15 12:35:43;;;;;;;2.28;0.98;;;13.30;99.90;;;;;;6690186;88;20281;-74
2021/05/15 12:45:44;;;;;;;1.85;0.80;;;13.50;99.90;;;;;;6684352;88;20198;-77
2021/05/15 12:55:53;;;;;;;3.87;1.00;;;13.70;99.90;;;;;;6690275;88;20212;-74
2021/05/15 13:05:54;;;;;;;3.40;0.88;;;13.40;99.90;;;;;;6684054;88;20556;-74
2021/05/15 13:15:54;;;;;;;2.25;0.95;;;13.10;99.90;;;;;;6683758;88;20212;-74
2021/05/15 13:25:55;;;;;;;1.83;1.00;;;12.20;99.90;;;;;;6682134;88;20197;-76
2021/05/15 13:35:55;;;;;;;1.92;0.82;;;12.70;99.90;;;;;;6678894;88;20864;-76
2021/05/15 13:45:56;;;;;;;2.22;0.80;;;13.40;99.90;;;;;;6682362;88;20674;-75
2021/05/15 13:55:57;;;;;;;1.95;1.20;;;13.60;99.90;;;;;;6682079;88;20772;-76
2021/05/15 14:05:58;;;;;;;5.90;1.15;;;13.50;99.90;;;;;;6683240;88;20691;-75
2021/05/15 14:15:58;;;;;;;1.58;0.60;;;13.30;99.90;;;;;;6682745;88;20993;-76
2021/05/15 14:25:59;;;;;;;2.33;0.80;;;12.50;99.90;;;;;;6679627;88;20227;-74
2021/05/15 14:36:00;;;;;;;2.53;0.88;;;12.10;99.90;;;;;;6682962;88;20650;-74
2021/05/15 14:46:00;;;;;;;2.93;0.90;;;12.20;99.90;;;;;;6681907;88;20232;-73
2021/05/15 14:56:06;;;;;;;3.58;1.00;;;12.90;99.90;;;;;;6677929;88;20557;-74
2021/05/15 15:06:08;;;;;;;3.05;1.67;;;13.80;99.90;;;;;;6683988;88;20219;-74
2021/05/15 15:16:11;;;;;;;3.55;1.02;;;14.00;99.90;;;;;;6684952;88;20666;-74
2021/05/15 15:26:11;;;;;;;3.65;0.93;;;13.80;99.90;;;;;;6685057;88;20315;-74
2021/05/15 15:36:12;;;;;;;3.33;1.00;;;13.80;99.90;;;;;;6681668;88;20178;-74
2021/05/15 15:46:14;;;;;;;2.95;1.27;;;13.80;99.90;;;;;;6684839;88;21027;-74
2021/05/15 15:56:15;;;;;;;2.60;1.00;;;13.90;99.90;;;;;;6684351;88;20231;-74
2021/05/15 16:06:15;;;;;;;3.37;1.83;;;14.10;99.90;;;;;;6684503;88;20252;-74
2021/05/15 16:16:17;;;;;;;2.22;0.70;;;14.50;99.90;;;;;;6684808;88;20303;-74
2021/05/15 16:26:18;;;;;;;1.80;0.80;;;14.20;99.90;;;;;;6685012;88;20226;-75
2021/05/15 16:36:18;;;;;;;2.10;1.00;;;14.40;99.90;;;;;;6684385;88;20198;-75
2021/05/15 16:46:19;;;;;;;2.72;0.90;;;14.70;99.90;;;;;;6683665;88;20368;-74
2021/05/15 16:56:20;;;;;;;0.90;0.50;;;14.90;99.90;;;;;;6683640;88;20319;-74
2021/05/15 17:06:22;;;;;;;2.55;0.73;;;14.50;99.90;;;;;;6684226;88;20206;-74
2021/05/15 17:16:22;;;;;;;2.42;0.68;;;14.10;99.90;;;;;;6684144;88;20312;-75
2021/05/15 17:26:23;;;;;;;1.58;0.65;;;14.00;99.90;;;;;;6687869;88;20195;-74
2021/05/15 17:36:24;;;;;;;1.95;0.93;;;13.90;99.90;;;;;;6683724;88;20178;-74
2021/05/15 17:46:24;;;;;;;1.58;0.80;;;14.00;99.90;;;;;;6690837;88;20198;-74
2021/05/15 17:56:25;;;;;;;1.55;0.62;;;14.50;99.90;;;;;;6684497;88;20198;-74
2021/05/15 18:06:26;;;;;;;1.92;0.70;;;13.80;99.90;;;;;;6684119;88;20421;-74
2021/05/15 18:16:27;;;;;;;2.35;0.70;;;13.80;99.90;;;;;;6683163;88;20315;-74
2021/05/15 18:26:29;;;;;;;1.90;0.60;;;13.70;99.90;;;;;;6683434;88;20198;-74
2021/05/15 18:36:34;;;;;;;1.73;0.70;;;13.40;99.90;;;;;;6684954;88;20318;-74
2021/05/15 18:46:35;;;;;;;3.92;0.80;;;13.10;99.90;;;;;;6681255;88;20244;-74
2021/05/15 18:56:36;;;;;;;2.07;0.70;;;12.80;99.90;;;;;;6679958;88;20821;-74
2021/05/15 19:06:37;;;;;;;2.45;0.80;;;12.70;99.90;;;;;;6684266;88;20217;-74
2021/05/15 19:16:38;;;;;;;1.50;0.60;;;12.60;99.90;;;;;;6683941;88;20400;-74
2021/05/15 19:26:40;;;;;;;1.27;0.40;;;12.40;99.90;;;;;;6680166;88;20223;-74
2021/05/15 19:36:40;;;;;;;1.60;0.50;;;12.30;99.90;;;;;;6683753;88;20206;-74
2021/05/15 19:46:42;;;;;;;2.58;0.40;;;12.10;99.90;;;;;;6683790;88;20655;-74
2021/05/15 19:56:42;;;;;;;0.90;0.40;;;11.90;99.90;;;;;;6686384;88;20187;-75
2021/05/15 20:06:43;;;;;;;3.22;0.65;;;11.70;99.90;;;;;;6686011;88;20219;-75
2021/05/15 20:16:44;;;;;;;2.90;0.60;;;11.50;99.90;;;;;;6686623;88;20197;-74
2021/05/15 20:26:45;;;;;;;1.92;0.60;;;11.30;99.90;;;;;;6685573;88;20202;-75
2021/05/15 20:36:46;;;;;;;1.35;0.50;;;11.20;99.90;;;;;;6681388;88;20296;-75
2021/05/15 20:46:49;;;;;;;1.93;0.63;;;11.10;99.90;;;;;;6684255;88;20281;-75
2021/05/15 20:56:49;;;;;;;2.35;0.50;;;11.10;99.90;;;;;;6687771;88;20538;-76
2021/05/15 21:06:50;;;;;;;2.08;0.57;;;11.10;99.90;;;;;;6685666;88;20186;-76
2021/05/15 21:16:52;;;;;;;3.42;0.57;;;11.20;99.90;;;;;;6682337;88;20200;-77
2021/05/15 21:26:52;;;;;;;3.28;0.50;;;11.20;99.90;;;;;;6687826;88;20189;-76
2021/05/15 21:36:53;;;;;;;4.90;0.52;;;11.20;99.90;;;;;;6683762;88;20193;-76
2021/05/15 21:46:54;;;;;;;5.87;0.77;;;11.10;99.90;;;;;;6683636;88;20204;-79
2021/05/15 21:56:54;;;;;;;4.37;0.73;;;11.10;99.90;;;;;;6683209;88;20234;-77
2021/05/15 22:06:55;;;;;;;2.50;0.60;;;11.00;99.90;;;;;;6682539;88;20782;-77
2021/05/15 22:16:55;;;;;;;2.75;0.90;;;10.90;99.90;;;;;;6692284;88;20614;-76
2021/05/15 22:26:56;;;;;;;2.90;0.80;;;10.80;99.90;;;;;;6694539;88;20230;-78
2021/05/15 22:36:57;;;;;;;6.35;1.02;;;10.70;99.90;;;;;;6689335;88;20174;-76
2021/05/15 22:46:57;;;;;;;3.22;1.20;;;10.70;99.90;;;;;;6686289;88;20362;-77
2021/05/15 22:56:58;;;;;;;3.57;0.70;;;10.60;99.90;;;;;;6693641;88;20320;-76
2021/05/15 23:06:59;;;;;;;5.55;1.17;;;10.50;99.90;;;;;;6696360;88;21059;-77
2021/05/15 23:16:59;;;;;;;4.28;1.10;;;10.40;99.90;;;;;;6700511;88;20186;-76
2021/05/15 23:27:00;;;;;;;4.12;0.98;;;10.30;99.90;;;;;;6701812;88;20283;-77
2021/05/15 23:37:02;;;;;;;5.87;0.90;;;10.20;99.90;;;;;;6701634;88;20191;-76
2021/05/15 23:47:03;;;;;;;5.85;0.90;;;10.10;99.90;;;;;;6696891;88;20251;-76
2021/05/15 23:57:04;;;;;;;5.25;1.10;;;10.00;99.90;;;;;;6686753;88;20812;-79
